Snaith, United Kingdom
Current Conditions -  °F | °C
As of 12:20 AM on Monday 22 Dec 2014 (Local Time) from EGCN Reporting Station
Broken Clouds Broken Clouds  
Wind Chill: 14°   Ceiling: 3200
Heat Index: 14°   Visibility: 6mi
Dew Point: 10°   Wind: 23mph
Humidity: 77%   Direction: 230°SW
Pressure: 29.91"   Gusts: 36mph
Location:  53.69°N, 1.03°W
Report Text: EGCN 220020Z 23020G31KT 9999 FEW026 BKN032 BKN038 14/10 Q1013
Loading
Personal Weather Stations






























Interactive Weather Map New forecast layout! Learn more

10-Day Weather Forecast

Advertisements
Track Severe Weather on mobile